sensor_id;sensor_type;location;lat;lon;timestamp;pressure;altitude;pressure_sealevel;temperature;humidity
69058;BME280;56128;37.534;-122.308;2022-07-19T00:01:42;101173.38;;;26.00;33.76
69058;BME280;56128;37.534;-122.308;2022-07-19T00:04:07;101168.31;;;25.97;32.69
69058;BME280;56128;37.534;-122.308;2022-07-19T00:06:33;101169.78;;;25.93;32.26
69058;BME280;56128;37.534;-122.308;2022-07-19T00:08:59;101166.84;;;25.88;32.77
69058;BME280;56128;37.534;-122.308;2022-07-19T00:11:25;101176.31;;;25.85;33.43
69058;BME280;56128;37.534;-122.308;2022-07-19T00:13:50;101164.06;;;25.81;33.42
69058;BME280;56128;37.534;-122.308;2022-07-19T00:16:16;101177.38;;;25.77;33.82
69058;BME280;56128;37.534;-122.308;2022-07-19T00:18:42;101175.47;;;25.71;34.09
69058;BME280;56128;37.534;-122.308;2022-07-19T00:21:08;101177.94;;;25.66;34.08
69058;BME280;56128;37.534;-122.308;2022-07-19T00:23:34;101173.72;;;25.57;34.66
69058;BME280;56128;37.534;-122.308;2022-07-19T00:26:00;101172.03;;;25.49;34.46
69058;BME280;56128;37.534;-122.308;2022-07-19T00:28:26;101181.28;;;25.41;34.91
69058;BME280;56128;37.534;-122.308;2022-07-19T00:30:52;101168.97;;;25.31;34.71
69058;BME280;56128;37.534;-122.308;2022-07-19T00:33:18;101168.50;;;25.14;34.98
69058;BME280;56128;37.534;-122.308;2022-07-19T00:35:44;101174.31;;;24.97;36.12
69058;BME280;56128;37.534;-122.308;2022-07-19T00:38:10;101176.34;;;24.82;36.76
69058;BME280;56128;37.534;-122.308;2022-07-19T00:40:37;101174.59;;;24.67;37.08
69058;BME280;56128;37.534;-122.308;2022-07-19T00:43:03;101173.00;;;24.58;36.58
69058;BME280;56128;37.534;-122.308;2022-07-19T00:45:29;101160.78;;;24.54;37.20
69058;BME280;56128;37.534;-122.308;2022-07-19T00:47:54;101173.97;;;24.43;37.33
69058;BME280;56128;37.534;-122.308;2022-07-19T00:50:21;101171.50;;;24.27;37.24
69058;BME280;56128;37.534;-122.308;2022-07-19T00:52:52;101172.50;;;24.19;36.98
69058;BME280;56128;37.534;-122.308;2022-07-19T00:55:18;101177.00;;;24.05;37.80
69058;BME280;56128;37.534;-122.308;2022-07-19T00:57:45;101181.97;;;23.95;37.86
69058;BME280;56128;37.534;-122.308;2022-07-19T01:00:11;101178.69;;;23.85;38.46
69058;BME280;56128;37.534;-122.308;2022-07-19T01:02:37;101175.81;;;23.71;39.07
69058;BME280;56128;37.534;-122.308;2022-07-19T01:05:03;101182.81;;;23.59;39.80
69058;BME280;56128;37.534;-122.308;2022-07-19T01:07:29;101185.41;;;23.45;39.88
69058;BME280;56128;37.534;-122.308;2022-07-19T01:09:55;101186.19;;;23.39;40.35
69058;BME280;56128;37.534;-122.308;2022-07-19T01:12:21;101189.28;;;23.36;40.46
69058;BME280;56128;37.534;-122.308;2022-07-19T01:14:55;101195.03;;;23.26;41.00
69058;BME280;56128;37.534;-122.308;2022-07-19T01:17:20;101201.44;;;23.18;41.20
69058;BME280;56128;37.534;-122.308;2022-07-19T01:19:46;101197.38;;;23.14;40.82
69058;BME280;56128;37.534;-122.308;2022-07-19T01:22:12;101206.88;;;23.03;41.26
69058;BME280;56128;37.534;-122.308;2022-07-19T01:24:38;101202.38;;;22.96;41.35
69058;BME280;56128;37.534;-122.308;2022-07-19T01:27:03;101201.44;;;22.89;41.34
69058;BME280;56128;37.534;-122.308;2022-07-19T01:29:31;101196.09;;;22.80;41.97
69058;BME280;56128;37.534;-122.308;2022-07-19T01:31:57;101196.84;;;22.74;42.24
69058;BME280;56128;37.534;-122.308;2022-07-19T01:34:23;101202.56;;;22.64;42.97
69058;BME280;56128;37.534;-122.308;2022-07-19T01:36:49;101198.03;;;22.57;42.78
69058;BME280;56128;37.534;-122.308;2022-07-19T01:39:15;101199.31;;;22.46;43.07
69058;BME280;56128;37.534;-122.308;2022-07-19T01:41:40;101201.28;;;22.37;43.61
69058;BME280;56128;37.534;-122.308;2022-07-19T01:44:17;101203.59;;;22.25;43.89
69058;BME280;56128;37.534;-122.308;2022-07-19T01:46:43;101201.78;;;22.17;44.25
69058;BME280;56128;37.534;-122.308;2022-07-19T01:49:09;101202.38;;;22.04;44.33
69058;BME280;56128;37.534;-122.308;2022-07-19T01:51:35;101201.28;;;21.91;44.58
69058;BME280;56128;37.534;-122.308;2022-07-19T01:54:00;101192.50;;;21.80;44.65
69058;BME280;56128;37.534;-122.308;2022-07-19T01:56:26;101198.50;;;21.76;45.20
69058;BME280;56128;37.534;-122.308;2022-07-19T01:59:12;101194.31;;;21.65;45.22
69058;BME280;56128;37.534;-122.308;2022-07-19T02:01:38;101197.25;;;21.55;45.24
69058;BME280;56128;37.534;-122.308;2022-07-19T02:04:03;101205.63;;;21.45;45.40
69058;BME280;56128;37.534;-122.308;2022-07-19T02:06:29;101207.34;;;21.38;45.43
69058;BME280;56128;37.534;-122.308;2022-07-19T02:08:55;101202.13;;;21.28;45.72
69058;BME280;56128;37.534;-122.308;2022-07-19T02:11:21;101209.13;;;21.22;46.18
69058;BME280;56128;37.534;-122.308;2022-07-19T02:14:05;101212.75;;;21.15;46.36
69058;BME280;56128;37.534;-122.308;2022-07-19T02:16:31;101209.84;;;21.08;46.84
69058;BME280;56128;37.534;-122.308;2022-07-19T02:18:57;101207.00;;;21.01;46.82
69058;BME280;56128;37.534;-122.308;2022-07-19T02:21:22;101220.28;;;20.96;47.50
69058;BME280;56128;37.534;-122.308;2022-07-19T02:23:48;101224.06;;;20.87;47.94
69058;BME280;56128;37.534;-122.308;2022-07-19T02:26:14;101226.59;;;20.80;47.94
69058;BME280;56128;37.534;-122.308;2022-07-19T02:28:40;101224.03;;;20.70;48.43
69058;BME280;56128;37.534;-122.308;2022-07-19T02:31:05;101227.94;;;20.68;48.54
69058;BME280;56128;37.534;-122.308;2022-07-19T02:33:31;101226.97;;;20.60;49.06
69058;BME280;56128;37.534;-122.308;2022-07-19T02:35:57;101215.91;;;20.54;49.61
69058;BME280;56128;37.534;-122.308;2022-07-19T02:38:23;101217.47;;;20.48;49.47
69058;BME280;56128;37.534;-122.308;2022-07-19T02:40:49;101220.19;;;20.40;50.37
69058;BME280;56128;37.534;-122.308;2022-07-19T02:43:15;101221.88;;;20.33;50.61
69058;BME280;56128;37.534;-122.308;2022-07-19T02:45:40;101224.44;;;20.26;50.48
69058;BME280;56128;37.534;-122.308;2022-07-19T02:48:08;101226.81;;;20.21;51.02
69058;BME280;56128;37.534;-122.308;2022-07-19T02:50:34;101219.50;;;20.13;51.57
69058;BME280;56128;37.534;-122.308;2022-07-19T02:53:00;101226.28;;;20.01;52.74
69058;BME280;56128;37.534;-122.308;2022-07-19T02:55:26;101215.56;;;19.91;53.65
69058;BME280;56128;37.534;-122.308;2022-07-19T02:57:52;101224.00;;;19.79;53.39
69058;BME280;56128;37.534;-122.308;2022-07-19T03:00:18;101225.84;;;19.71;53.62
69058;BME280;56128;37.534;-122.308;2022-07-19T03:02:43;101226.16;;;19.59;54.35
69058;BME280;56128;37.534;-122.308;2022-07-19T03:05:09;101228.19;;;19.49;54.48
69058;BME280;56128;37.534;-122.308;2022-07-19T03:07:35;101230.19;;;19.39;55.33
69058;BME280;56128;37.534;-122.308;2022-07-19T03:10:01;101232.16;;;19.28;55.59
69058;BME280;56128;37.534;-122.308;2022-07-19T03:12:27;101231.78;;;19.15;56.08
69058;BME280;56128;37.534;-122.308;2022-07-19T03:14:53;101237.84;;;19.09;55.89
69058;BME280;56128;37.534;-122.308;2022-07-19T03:17:19;101236.25;;;18.98;56.60
69058;BME280;56128;37.534;-122.308;2022-07-19T03:19:45;101232.94;;;18.86;57.12
69058;BME280;56128;37.534;-122.308;2022-07-19T03:22:11;101228.47;;;18.77;56.87
69058;BME280;56128;37.534;-122.308;2022-07-19T03:24:37;101236.22;;;18.72;57.38
69058;BME280;56128;37.534;-122.308;2022-07-19T03:27:03;101236.50;;;18.60;58.05
69058;BME280;56128;37.534;-122.308;2022-07-19T03:29:29;101239.13;;;18.52;58.88
69058;BME280;56128;37.534;-122.308;2022-07-19T03:31:55;101232.66;;;18.45;59.01
69058;BME280;56128;37.534;-122.308;2022-07-19T03:34:20;101236.28;;;18.36;58.87
69058;BME280;56128;37.534;-122.308;2022-07-19T03:36:46;101246.06;;;18.28;59.63
69058;BME280;56128;37.534;-122.308;2022-07-19T03:39:12;101237.16;;;18.18;60.00
69058;BME280;56128;37.534;-122.308;2022-07-19T03:41:38;101242.53;;;18.10;60.25
69058;BME280;56128;37.534;-122.308;2022-07-19T03:44:04;101247.84;;;18.01;60.26
69058;BME280;56128;37.534;-122.308;2022-07-19T03:46:29;101240.06;;;17.89;61.79
69058;BME280;56128;37.534;-122.308;2022-07-19T03:48:56;101243.00;;;17.77;61.01
69058;BME280;56128;37.534;-122.308;2022-07-19T03:51:22;101254.88;;;17.66;61.81
69058;BME280;56128;37.534;-122.308;2022-07-19T03:53:48;101260.81;;;17.52;62.77
69058;BME280;56128;37.534;-122.308;2022-07-19T03:56:14;101266.13;;;17.44;63.24
69058;BME280;56128;37.534;-122.308;2022-07-19T03:58:40;101266.03;;;17.35;63.40
69058;BME280;56128;37.534;-122.308;2022-07-19T04:01:06;101271.06;;;17.20;64.18
69058;BME280;56128;37.534;-122.308;2022-07-19T04:03:37;101276.50;;;17.11;63.75
69058;BME280;56128;37.534;-122.308;2022-07-19T04:06:07;101278.09;;;17.03;64.46
69058;BME280;56128;37.534;-122.308;2022-07-19T04:08:33;101275.69;;;16.91;64.43
69058;BME280;56128;37.534;-122.308;2022-07-19T04:10:59;101278.25;;;16.82;64.92
69058;BME280;56128;37.534;-122.308;2022-07-19T04:13:25;101286.09;;;16.76;65.95
69058;BME280;56128;37.534;-122.308;2022-07-19T04:15:51;101289.38;;;16.69;65.68
69058;BME280;56128;37.534;-122.308;2022-07-19T04:18:17;101294.78;;;16.60;66.71
69058;BME280;56128;37.534;-122.308;2022-07-19T04:20:42;101284.13;;;16.48;67.23
69058;BME280;56128;37.534;-122.308;2022-07-19T04:23:08;101282.72;;;16.44;67.13
69058;BME280;56128;37.534;-122.308;2022-07-19T04:25:34;101282.41;;;16.37;66.74
69058;BME280;56128;37.534;-122.308;2022-07-19T04:28:01;101282.72;;;16.34;66.92
69058;BME280;56128;37.534;-122.308;2022-07-19T04:30:27;101291.69;;;16.25;67.09
69058;BME280;56128;37.534;-122.308;2022-07-19T04:32:53;101297.75;;;16.17;67.96
69058;BME280;56128;37.534;-122.308;2022-07-19T04:35:19;101307.16;;;16.13;67.54
69058;BME280;56128;37.534;-122.308;2022-07-19T04:37:45;101306.13;;;16.04;67.57
69058;BME280;56128;37.534;-122.308;2022-07-19T04:40:11;101315.50;;;16.00;68.45
69058;BME280;56128;37.534;-122.308;2022-07-19T04:42:37;101311.50;;;15.95;68.12
69058;BME280;56128;37.534;-122.308;2022-07-19T04:45:03;101324.44;;;15.91;68.55
69058;BME280;56128;37.534;-122.308;2022-07-19T04:47:29;101323.00;;;15.87;68.51
69058;BME280;56128;37.534;-122.308;2022-07-19T04:49:55;101332.50;;;15.81;69.54
69058;BME280;56128;37.534;-122.308;2022-07-19T04:52:21;101342.84;;;15.76;69.39
69058;BME280;56128;37.534;-122.308;2022-07-19T04:54:46;101335.16;;;15.71;69.84
69058;BME280;56128;37.534;-122.308;2022-07-19T04:57:12;101340.81;;;15.68;68.93
69058;BME280;56128;37.534;-122.308;2022-07-19T04:59:39;101348.75;;;15.60;68.75
69058;BME280;56128;37.534;-122.308;2022-07-19T05:02:04;101347.28;;;15.56;70.22
69058;BME280;56128;37.534;-122.308;2022-07-19T05:04:30;101346.97;;;15.49;69.19
69058;BME280;56128;37.534;-122.308;2022-07-19T05:06:56;101354.47;;;15.46;71.07
69058;BME280;56128;37.534;-122.308;2022-07-19T05:09:23;101364.81;;;15.40;70.88
69058;BME280;56128;37.534;-122.308;2022-07-19T05:11:49;101365.22;;;15.36;70.84
69058;BME280;56128;37.534;-122.308;2022-07-19T05:14:15;101359.38;;;15.31;71.08
69058;BME280;56128;37.534;-122.308;2022-07-19T05:16:41;101346.84;;;15.20;70.93
69058;BME280;56128;37.534;-122.308;2022-07-19T05:19:07;101360.50;;;15.28;71.22
69058;BME280;56128;37.534;-122.308;2022-07-19T05:21:32;101357.34;;;15.23;71.74
69058;BME280;56128;37.534;-122.308;2022-07-19T05:23:58;101365.97;;;15.17;71.57
69058;BME280;56128;37.534;-122.308;2022-07-19T05:26:24;101364.66;;;15.11;71.68
69058;BME280;56128;37.534;-122.308;2022-07-19T05:28:50;101363.47;;;15.04;72.98
69058;BME280;56128;37.534;-122.308;2022-07-19T05:31:15;101370.97;;;15.00;73.81
69058;BME280;56128;37.534;-122.308;2022-07-19T05:33:41;101362.16;;;14.98;74.56
69058;BME280;56128;37.534;-122.308;2022-07-19T05:36:07;101367.53;;;14.98;74.36
69058;BME280;56128;37.534;-122.308;2022-07-19T05:38:38;101364.13;;;14.96;74.25
69058;BME280;56128;37.534;-122.308;2022-07-19T05:41:05;101364.13;;;14.96;74.70
69058;BME280;56128;37.534;-122.308;2022-07-19T05:43:31;101361.97;;;14.90;73.61
69058;BME280;56128;37.534;-122.308;2022-07-19T05:45:57;101364.34;;;14.83;74.25
69058;BME280;56128;37.534;-122.308;2022-07-19T05:48:22;101369.22;;;14.78;73.84
69058;BME280;56128;37.534;-122.308;2022-07-19T05:50:48;101369.75;;;14.72;74.67
69058;BME280;56128;37.534;-122.308;2022-07-19T05:53:14;101367.69;;;14.64;75.00
69058;BME280;56128;37.534;-122.308;2022-07-19T05:55:42;101368.31;;;14.56;74.61
69058;BME280;56128;37.534;-122.308;2022-07-19T05:58:08;101366.28;;;14.49;75.07
69058;BME280;56128;37.534;-122.308;2022-07-19T06:00:34;101367.53;;;14.44;74.82
69058;BME280;56128;37.534;-122.308;2022-07-19T06:03:00;101367.91;;;14.40;75.38
69058;BME280;56128;37.534;-122.308;2022-07-19T06:05:26;101366.56;;;14.34;76.18
69058;BME280;56128;37.534;-122.308;2022-07-19T06:07:51;101360.00;;;14.27;76.93
69058;BME280;56128;37.534;-122.308;2022-07-19T06:10:17;101361.19;;;14.23;76.77
69058;BME280;56128;37.534;-122.308;2022-07-19T06:12:43;101356.31;;;14.17;77.28
69058;BME280;56128;37.534;-122.308;2022-07-19T06:15:09;101353.28;;;14.10;78.01
69058;BME280;56128;37.534;-122.308;2022-07-19T06:17:35;101357.22;;;14.06;78.16
69058;BME280;56128;37.534;-122.308;2022-07-19T06:20:01;101353.78;;;14.04;77.60
69058;BME280;56128;37.534;-122.308;2022-07-19T06:22:30;101351.47;;;13.99;77.96
69058;BME280;56128;37.534;-122.308;2022-07-19T06:24:56;101347.31;;;13.95;79.22
69058;BME280;56128;37.534;-122.308;2022-07-19T06:27:22;101349.41;;;13.91;78.00
69058;BME280;56128;37.534;-122.308;2022-07-19T06:29:48;101358.47;;;13.90;78.58
69058;BME280;56128;37.534;-122.308;2022-07-19T06:32:14;101362.25;;;13.88;77.92
69058;BME280;56128;37.534;-122.308;2022-07-19T06:34:39;101357.97;;;13.85;77.67
69058;BME280;56128;37.534;-122.308;2022-07-19T06:37:05;101359.34;;;13.79;78.34
69058;BME280;56128;37.534;-122.308;2022-07-19T06:39:31;101355.19;;;13.75;79.43
69058;BME280;56128;37.534;-122.308;2022-07-19T06:41:57;101357.25;;;13.72;80.33
69058;BME280;56128;37.534;-122.308;2022-07-19T06:44:23;101354.19;;;13.65;79.94
69058;BME280;56128;37.534;-122.308;2022-07-19T06:46:48;101357.13;;;13.62;79.68
69058;BME280;56128;37.534;-122.308;2022-07-19T06:49:14;101361.16;;;13.56;80.28
69058;BME280;56128;37.534;-122.308;2022-07-19T06:51:40;101365.91;;;13.53;80.13
69058;BME280;56128;37.534;-122.308;2022-07-19T06:54:06;101362.75;;;13.47;81.26
69058;BME280;56128;37.534;-122.308;2022-07-19T06:56:32;101361.16;;;13.45;80.78
69058;BME280;56128;37.534;-122.308;2022-07-19T06:58:57;101356.16;;;13.40;81.03
69058;BME280;56128;37.534;-122.308;2022-07-19T07:01:23;101357.47;;;13.35;80.63
69058;BME280;56128;37.534;-122.308;2022-07-19T07:03:49;101355.88;;;13.32;80.46
69058;BME280;56128;37.534;-122.308;2022-07-19T07:06:15;101368.56;;;13.30;81.41
69058;BME280;56128;37.534;-122.308;2022-07-19T07:08:41;101372.34;;;13.27;82.92
69058;BME280;56128;37.534;-122.308;2022-07-19T07:11:06;101378.09;;;13.23;83.16
69058;BME280;56128;37.534;-122.308;2022-07-19T07:13:32;101367.91;;;13.15;82.41
69058;BME280;56128;37.534;-122.308;2022-07-19T07:15:58;101370.72;;;13.13;84.05
69058;BME280;56128;37.534;-122.308;2022-07-19T07:18:24;101377.22;;;13.11;83.54
69058;BME280;56128;37.534;-122.308;2022-07-19T07:20:49;101389.28;;;13.05;84.12
69058;BME280;56128;37.534;-122.308;2022-07-19T07:23:15;101388.88;;;12.98;84.43
69058;BME280;56128;37.534;-122.308;2022-07-19T07:25:41;101393.63;;;12.95;84.74
69058;BME280;56128;37.534;-122.308;2022-07-19T07:28:07;101392.16;;;12.91;84.28
69058;BME280;56128;37.534;-122.308;2022-07-19T07:30:32;101393.25;;;12.88;85.02
69058;BME280;56128;37.534;-122.308;2022-07-19T07:32:58;101390.81;;;12.85;84.30
69058;BME280;56128;37.534;-122.308;2022-07-19T07:35:24;101391.91;;;12.82;84.40
69058;BME280;56128;37.534;-122.308;2022-07-19T07:37:50;101392.25;;;12.78;84.69
69058;BME280;56128;37.534;-122.308;2022-07-19T07:40:16;101393.56;;;12.72;84.21
69058;BME280;56128;37.534;-122.308;2022-07-19T07:42:41;101393.81;;;12.69;85.43
69058;BME280;56128;37.534;-122.308;2022-07-19T07:45:07;101385.00;;;12.67;84.92
69058;BME280;56128;37.534;-122.308;2022-07-19T07:47:35;101385.38;;;12.62;85.32
69058;BME280;56128;37.534;-122.308;2022-07-19T07:50:01;101388.25;;;12.59;85.30
69058;BME280;56128;37.534;-122.308;2022-07-19T07:52:27;101389.34;;;12.57;86.30
69058;BME280;56128;37.534;-122.308;2022-07-19T07:54:53;101393.13;;;12.54;85.43
69058;BME280;56128;37.534;-122.308;2022-07-19T07:57:18;101386.16;;;12.52;85.61
69058;BME280;56128;37.534;-122.308;2022-07-19T07:59:44;101397.97;;;12.49;85.39
69058;BME280;56128;37.534;-122.308;2022-07-19T08:02:10;101393.69;;;12.46;85.56
69058;BME280;56128;37.534;-122.308;2022-07-19T08:04:36;101395.63;;;12.44;86.04
69058;BME280;56128;37.534;-122.308;2022-07-19T08:07:01;101387.91;;;12.40;86.01
69058;BME280;56128;37.534;-122.308;2022-07-19T08:09:27;101395.22;;;12.38;85.56
69058;BME280;56128;37.534;-122.308;2022-07-19T08:11:53;101382.16;;;12.33;86.03
69058;BME280;56128;37.534;-122.308;2022-07-19T08:14:19;101388.47;;;12.32;87.05
69058;BME280;56128;37.534;-122.308;2022-07-19T08:16:44;101380.78;;;12.27;87.55
69058;BME280;56128;37.534;-122.308;2022-07-19T08:19:10;101382.72;;;12.25;88.27
69058;BME280;56128;37.534;-122.308;2022-07-19T08:21:36;101380.25;;;12.22;87.74
69058;BME280;56128;37.534;-122.308;2022-07-19T08:24:02;101381.31;;;12.20;87.05
69058;BME280;56128;37.534;-122.308;2022-07-19T08:26:27;101376.31;;;12.15;87.24
69058;BME280;56128;37.534;-122.308;2022-07-19T08:28:55;101371.03;;;12.13;87.39
69058;BME280;56128;37.534;-122.308;2022-07-19T08:31:21;101372.38;;;12.08;86.84
69058;BME280;56128;37.534;-122.308;2022-07-19T08:33:47;101378.06;;;12.03;86.72
69058;BME280;56128;37.534;-122.308;2022-07-19T08:36:13;101371.97;;;12.01;86.89
69058;BME280;56128;37.534;-122.308;2022-07-19T08:38:39;101373.06;;;11.98;87.01
69058;BME280;56128;37.534;-122.308;2022-07-19T08:41:05;101376.81;;;11.96;87.42
69058;BME280;56128;37.534;-122.308;2022-07-19T08:43:31;101379.66;;;11.93;87.91
69058;BME280;56128;37.534;-122.308;2022-07-19T08:46:00;101369.19;;;11.90;88.53
69058;BME280;56128;37.534;-122.308;2022-07-19T08:48:29;101381.81;;;11.88;88.56
69058;BME280;56128;37.534;-122.308;2022-07-19T08:50:56;101382.16;;;11.83;88.55
69058;BME280;56128;37.534;-122.308;2022-07-19T08:53:22;101377.13;;;11.78;87.90
69058;BME280;56128;37.534;-122.308;2022-07-19T08:55:48;101379.06;;;11.76;87.67
69058;BME280;56128;37.534;-122.308;2022-07-19T08:58:15;101384.84;;;11.70;88.08
69058;BME280;56128;37.534;-122.308;2022-07-19T09:00:40;101381.41;;;11.68;88.72
69058;BME280;56128;37.534;-122.308;2022-07-19T09:03:07;101375.31;;;11.66;88.60
69058;BME280;56128;37.534;-122.308;2022-07-19T09:05:33;101378.22;;;11.63;88.47
69058;BME280;56128;37.534;-122.308;2022-07-19T09:10:28;101367.19;;;11.55;89.37
69058;BME280;56128;37.534;-122.308;2022-07-19T09:13:00;101368.28;;;11.52;89.55
69058;BME280;56128;37.534;-122.308;2022-07-19T09:18:06;101374.91;;;11.46;88.84
69058;BME280;56128;37.534;-122.308;2022-07-19T09:20:32;101370.63;;;11.44;89.60
69058;BME280;56128;37.534;-122.308;2022-07-19T09:22:58;101370.72;;;11.42;89.73
69058;BME280;56128;37.534;-122.308;2022-07-19T09:25:41;101359.47;;;11.37;89.44
69058;BME280;56128;37.534;-122.308;2022-07-19T09:28:08;101365.81;;;11.36;90.92
69058;BME280;56128;37.534;-122.308;2022-07-19T09:30:35;101369.44;;;11.35;90.92
69058;BME280;56128;37.534;-122.308;2022-07-19T09:33:06;101368.78;;;11.31;90.81
69058;BME280;56128;37.534;-122.308;2022-07-19T09:35:36;101375.03;;;11.32;92.27
69058;BME280;56128;37.534;-122.308;2022-07-19T09:40:40;101374.69;;;11.24;91.30
69058;BME280;56128;37.534;-122.308;2022-07-19T09:43:06;101379.28;;;11.21;91.26
69058;BME280;56128;37.534;-122.308;2022-07-19T09:45:32;101376.84;;;11.18;91.44
69058;BME280;56128;37.534;-122.308;2022-07-19T09:47:58;101381.31;;;11.18;91.73
69058;BME280;56128;37.534;-122.308;2022-07-19T09:50:25;101378.00;;;11.14;92.07
69058;BME280;56128;37.534;-122.308;2022-07-19T09:52:51;101381.13;;;11.08;90.96
69058;BME280;56128;37.534;-122.308;2022-07-19T09:55:18;101386.47;;;11.08;92.52
69058;BME280;56128;37.534;-122.308;2022-07-19T09:57:49;101381.31;;;11.05;91.74
69058;BME280;56128;37.534;-122.308;2022-07-19T10:00:16;101379.59;;;11.04;92.10
69058;BME280;56128;37.534;-122.308;2022-07-19T10:02:43;101377.31;;;10.98;92.17
69058;BME280;56128;37.534;-122.308;2022-07-19T10:05:10;101372.19;;;10.95;92.56
69058;BME280;56128;37.534;-122.308;2022-07-19T10:07:36;101376.06;;;10.91;92.18
69058;BME280;56128;37.534;-122.308;2022-07-19T10:10:06;101384.28;;;10.87;92.60
69058;BME280;56128;37.534;-122.308;2022-07-19T10:12:32;101394.25;;;10.85;92.74
69058;BME280;56128;37.534;-122.308;2022-07-19T10:14:58;101390.59;;;10.86;92.93
69058;BME280;56128;37.534;-122.308;2022-07-19T10:19:56;101379.34;;;10.81;93.40
69058;BME280;56128;37.534;-122.308;2022-07-19T10:22:23;101381.06;;;10.82;94.44
69058;BME280;56128;37.534;-122.308;2022-07-19T10:24:53;101388.31;;;10.80;94.68
69058;BME280;56128;37.534;-122.308;2022-07-19T10:29:51;101389.31;;;10.79;94.50
69058;BME280;56128;37.534;-122.308;2022-07-19T10:32:17;101385.66;;;10.80;94.78
69058;BME280;56128;37.534;-122.308;2022-07-19T10:34:44;101382.13;;;10.80;94.49
69058;BME280;56128;37.534;-122.308;2022-07-19T10:37:13;101383.97;;;10.79;94.09
69058;BME280;56128;37.534;-122.308;2022-07-19T10:39:39;101381.47;;;10.76;94.53
69058;BME280;56128;37.534;-122.308;2022-07-19T10:42:12;101387.78;;;10.75;94.61
69058;BME280;56128;37.534;-122.308;2022-07-19T10:50:04;101390.66;;;10.72;96.31
69058;BME280;56128;37.534;-122.308;2022-07-19T10:57:52;101396.03;;;10.72;97.09
69058;BME280;56128;37.534;-122.308;2022-07-19T11:00:22;101395.06;;;10.73;97.92
69058;BME280;56128;37.534;-122.308;2022-07-19T11:02:49;101398.69;;;10.72;96.60
69058;BME280;56128;37.534;-122.308;2022-07-19T11:05:22;101400.50;;;10.71;96.39
69058;BME280;56128;37.534;-122.308;2022-07-19T11:07:48;101405.97;;;10.70;97.56
69058;BME280;56128;37.534;-122.308;2022-07-19T11:10:21;101407.69;;;10.71;98.12
69058;BME280;56128;37.534;-122.308;2022-07-19T11:12:47;101401.78;;;10.66;97.84
69058;BME280;56128;37.534;-122.308;2022-07-19T11:15:13;101411.72;;;10.64;97.56
69058;BME280;56128;37.534;-122.308;2022-07-19T11:17:39;101400.84;;;10.67;98.22
69058;BME280;56128;37.534;-122.308;2022-07-19T11:20:10;101408.09;;;10.65;97.77
69058;BME280;56128;37.534;-122.308;2022-07-19T11:22:38;101404.66;;;10.63;97.41
69058;BME280;56128;37.534;-122.308;2022-07-19T11:25:04;101401.25;;;10.61;96.38
69058;BME280;56128;37.534;-122.308;2022-07-19T11:27:30;101408.31;;;10.62;96.90
69058;BME280;56128;37.534;-122.308;2022-07-19T11:29:57;101411.06;;;10.60;97.03
69058;BME280;56128;37.534;-122.308;2022-07-19T11:32:23;101416.53;;;10.59;97.36
69058;BME280;56128;37.534;-122.308;2022-07-19T11:34:56;101412.13;;;10.58;96.70
69058;BME280;56128;37.534;-122.308;2022-07-19T11:37:26;101414.06;;;10.55;97.73
69058;BME280;56128;37.534;-122.308;2022-07-19T11:39:52;101425.84;;;10.53;97.08
69058;BME280;56128;37.534;-122.308;2022-07-19T11:42:38;101414.47;;;10.49;97.07
69058;BME280;56128;37.534;-122.308;2022-07-19T11:45:17;101423.22;;;10.51;98.07
69058;BME280;56128;37.534;-122.308;2022-07-19T11:47:43;101419.06;;;10.47;97.38
69058;BME280;56128;37.534;-122.308;2022-07-19T11:50:10;101414.47;;;10.49;97.97
69058;BME280;56128;37.534;-122.308;2022-07-19T11:52:46;101420.66;;;10.50;98.24
69058;BME280;56128;37.534;-122.308;2022-07-19T11:55:13;101426.00;;;10.50;98.41
69058;BME280;56128;37.534;-122.308;2022-07-19T11:57:39;101423.63;;;10.45;97.63
69058;BME280;56128;37.534;-122.308;2022-07-19T12:00:06;101417.53;;;10.43;97.83
69058;BME280;56128;37.534;-122.308;2022-07-19T12:05:17;101422.00;;;10.43;98.99
69058;BME280;56128;37.534;-122.308;2022-07-19T12:07:46;101417.00;;;10.38;98.38
69058;BME280;56128;37.534;-122.308;2022-07-19T12:10:57;101427.84;;;10.35;97.79
69058;BME280;56128;37.534;-122.308;2022-07-19T12:12:59;101424.59;;;10.30;97.04
69058;BME280;56128;37.534;-122.308;2022-07-19T12:15:25;101423.94;;;10.26;98.76
69058;BME280;56128;37.534;-122.308;2022-07-19T12:17:54;101421.47;;;10.23;97.63
69058;BME280;56128;37.534;-122.308;2022-07-19T12:20:20;101431.50;;;10.19;97.61
69058;BME280;56128;37.534;-122.308;2022-07-19T12:22:46;101434.38;;;10.16;97.93
69058;BME280;56128;37.534;-122.308;2022-07-19T12:25:12;101432.84;;;10.12;97.92
69058;BME280;56128;37.534;-122.308;2022-07-19T12:27:38;101434.97;;;10.07;97.23
69058;BME280;56128;37.534;-122.308;2022-07-19T12:30:06;101440.31;;;10.07;97.70
69058;BME280;56128;37.534;-122.308;2022-07-19T12:32:36;101430.66;;;10.04;98.07
69058;BME280;56128;37.534;-122.308;2022-07-19T12:37:29;101445.66;;;10.07;99.61
69058;BME280;56128;37.534;-122.308;2022-07-19T12:40:41;101447.50;;;10.06;99.56
69058;BME280;56128;37.534;-122.308;2022-07-19T12:42:52;101447.56;;;10.05;99.76
69058;BME280;56128;37.534;-122.308;2022-07-19T12:45:25;101455.56;;;10.05;100.00
69058;BME280;56128;37.534;-122.308;2022-07-19T12:47:51;101461.91;;;10.04;100.00